FDX430 KLAX-KPDX
Flight info
| Callsign | FDX430 |
|---|---|
| Flight time | 1h 39m |
| Altitude | 34000 |
| Route | LADYJ4 CSTRO SHIMR LMT MOXEE TMBRS4 |
| Aircraft | B77L/H-SDE1E2E3FGHIJ2J3J4J5M1RWXY/LB1D1 |
Departure
| Time | 2026-04-24 02:56 |
|---|---|
| Airport | Los Angeles International Airport (KLAX) |
Arrival
| Time | 2026-04-24 04:35 |
|---|---|
| Airport | Portland International Airport (KPDX) |
| Time | Latitude | Longitude | Altitude | Speed | Heading |
|---|---|---|---|---|---|
| 2026-04-24 02:34 | 33.93441 | -118.38588 | 125 ft | 0 kts | 269° |
| 2026-04-24 02:47 | 33.93441 | -118.38587 | 130 ft | 2 kts | 269° |
| 2026-04-24 02:48 | 33.93440 | -118.38568 | 125 ft | 2 kts | 280° |
| 2026-04-24 02:48 | 33.93436 | -118.38549 | 125 ft | 2 kts | 296° |
| 2026-04-24 02:48 | 33.93427 | -118.38532 | 125 ft | 2 kts | 316° |
| 2026-04-24 02:48 | 33.93414 | -118.38520 | 126 ft | 2 kts | 337° |
| 2026-04-24 02:49 | 33.93398 | -118.38514 | 125 ft | 2 kts | 351° |
| 2026-04-24 02:49 | 33.93384 | -118.38512 | 125 ft | 1 kts | 358° |
| 2026-04-24 02:49 | 33.93380 | -118.38512 | 125 ft | 0 kts | 359° |
| 2026-04-24 02:49 | 33.93381 | -118.38512 | 125 ft | 0 kts | 359° |
| 2026-04-24 02:50 | 33.93384 | -118.38512 | 125 ft | 1 kts | 359° |
| 2026-04-24 02:50 | 33.93394 | -118.38513 | 125 ft | 2 kts | 358° |
| 2026-04-24 02:50 | 33.93412 | -118.38513 | 125 ft | 5 kts | 360° |
| 2026-04-24 02:51 | 33.93466 | -118.38513 | 128 ft | 7 kts | 360° |
| 2026-04-24 02:51 | 33.93515 | -118.38509 | 127 ft | 7 kts | 7° |
| 2026-04-24 02:51 | 33.93564 | -118.38505 | 127 ft | 7 kts | 15° |
| 2026-04-24 02:51 | 33.93592 | -118.38459 | 126 ft | 7 kts | 75° |
| 2026-04-24 02:52 | 33.93601 | -118.38400 | 130 ft | 7 kts | 82° |
| 2026-04-24 02:52 | 33.93607 | -118.38340 | 126 ft | 7 kts | 83° |
| 2026-04-24 02:52 | 33.93628 | -118.38289 | 126 ft | 7 kts | 38° |
| 2026-04-24 02:52 | 33.93631 | -118.38287 | 126 ft | 0 kts | 33° |
| 2026-04-24 02:54 | 33.93632 | -118.38287 | 130 ft | 2 kts | 33° |
| 2026-04-24 02:54 | 33.93683 | -118.38279 | 128 ft | 9 kts | 353° |
| 2026-04-24 02:54 | 33.93728 | -118.38329 | 124 ft | 9 kts | 286° |
| 2026-04-24 02:54 | 33.93725 | -118.38412 | 126 ft | 16 kts | 261° |
| 2026-04-24 02:55 | 33.93682 | -118.38814 | 128 ft | 83 kts | 263° |
| 2026-04-24 02:55 | 33.93584 | -118.39755 | 128 ft | 141 kts | 263° |
| 2026-04-24 02:55 | 33.93440 | -118.41069 | 314 ft | 167 kts | 261° |
| 2026-04-24 02:55 | 33.93273 | -118.42523 | 649 ft | 183 kts | 262° |
| 2026-04-24 02:56 | 33.93113 | -118.44083 | 1168 ft | 190 kts | 264° |
| 2026-04-24 02:56 | 33.92966 | -118.45714 | 1662 ft | 207 kts | 266° |
| 2026-04-24 02:56 | 33.92888 | -118.47567 | 1880 ft | 235 kts | 269° |
| 2026-04-24 02:56 | 33.92832 | -118.49596 | 2428 ft | 247 kts | 269° |
| 2026-04-24 02:57 | 33.92733 | -118.51686 | 2789 ft | 251 kts | 265° |
| 2026-04-24 02:57 | 33.92551 | -118.53790 | 2992 ft | 259 kts | 264° |
| 2026-04-24 02:57 | 33.92359 | -118.55964 | 3005 ft | 261 kts | 265° |
| 2026-04-24 02:57 | 33.92174 | -118.58129 | 3476 ft | 259 kts | 265° |
| 2026-04-24 02:58 | 33.92004 | -118.60303 | 4299 ft | 262 kts | 269° |
| 2026-04-24 02:58 | 33.92382 | -118.62460 | 4883 ft | 270 kts | 301° |
| 2026-04-24 02:58 | 33.93653 | -118.64059 | 5665 ft | 269 kts | 327° |
| 2026-04-24 02:58 | 33.95299 | -118.65155 | 6399 ft | 273 kts | 332° |
| 2026-04-24 02:59 | 33.96981 | -118.66250 | 7195 ft | 274 kts | 331° |
| 2026-04-24 02:59 | 33.98667 | -118.67318 | 7806 ft | 274 kts | 337° |
| 2026-04-24 02:59 | 34.00545 | -118.67721 | 8109 ft | 277 kts | 2° |
| 2026-04-24 02:59 | 34.02488 | -118.67533 | 8669 ft | 284 kts | 2° |
| 2026-04-24 03:00 | 34.04479 | -118.67396 | 9398 ft | 288 kts | 1° |
| 2026-04-24 03:00 | 34.06494 | -118.67272 | 10166 ft | 291 kts | 0° |
| 2026-04-24 03:00 | 34.08562 | -118.67104 | 10605 ft | 309 kts | 4° |
| 2026-04-24 03:00 | 34.10771 | -118.66641 | 10781 ft | 336 kts | 9° |
| 2026-04-24 03:01 | 34.13141 | -118.66015 | 10984 ft | 361 kts | 10° |
| 2026-04-24 03:01 | 34.15657 | -118.65355 | 11411 ft | 377 kts | 9° |
| 2026-04-24 03:01 | 34.18261 | -118.64711 | 12120 ft | 385 kts | 9° |
| 2026-04-24 03:01 | 34.20903 | -118.64078 | 12971 ft | 389 kts | 8° |
| 2026-04-24 03:02 | 34.23568 | -118.63463 | 13810 ft | 389 kts | 5° |
| 2026-04-24 03:02 | 34.26258 | -118.63441 | 14262 ft | 386 kts | 347° |
| 2026-04-24 03:02 | 34.28908 | -118.64141 | 14788 ft | 394 kts | 344° |
| 2026-04-24 03:02 | 34.31589 | -118.64843 | 15659 ft | 394 kts | 345° |
| 2026-04-24 03:03 | 34.34286 | -118.65499 | 16465 ft | 398 kts | 345° |
| 2026-04-24 03:03 | 34.37025 | -118.66135 | 17140 ft | 404 kts | 345° |
| 2026-04-24 03:03 | 34.39805 | -118.66770 | 17830 ft | 409 kts | 345° |
| 2026-04-24 03:03 | 34.42614 | -118.67407 | 18519 ft | 413 kts | 345° |
| 2026-04-24 03:04 | 34.45456 | -118.68006 | 19188 ft | 416 kts | 346° |
| 2026-04-24 03:04 | 34.48332 | -118.68564 | 19810 ft | 420 kts | 347° |
| 2026-04-24 03:04 | 34.51233 | -118.69113 | 20435 ft | 424 kts | 347° |
| 2026-04-24 03:04 | 34.54166 | -118.69668 | 21047 ft | 428 kts | 346° |
| 2026-04-24 03:05 | 34.57090 | -118.70232 | 21655 ft | 432 kts | 346° |
| 2026-04-24 03:05 | 34.60071 | -118.70814 | 22262 ft | 436 kts | 346° |
| 2026-04-24 03:05 | 34.63076 | -118.71402 | 22909 ft | 440 kts | 346° |
| 2026-04-24 03:05 | 34.66111 | -118.71997 | 23493 ft | 443 kts | 346° |
| 2026-04-24 03:06 | 34.69168 | -118.72597 | 23994 ft | 447 kts | 346° |
| 2026-04-24 03:06 | 34.72218 | -118.73331 | 24499 ft | 445 kts | 338° |
| 2026-04-24 03:06 | 34.74997 | -118.74868 | 24929 ft | 438 kts | 326° |
| 2026-04-24 03:06 | 34.77628 | -118.76768 | 25343 ft | 442 kts | 325° |
| 2026-04-24 03:07 | 34.80279 | -118.78691 | 25812 ft | 445 kts | 325° |
| 2026-04-24 03:07 | 34.82954 | -118.80604 | 26372 ft | 447 kts | 325° |
| 2026-04-24 03:07 | 34.85649 | -118.82502 | 26908 ft | 449 kts | 326° |
| 2026-04-24 03:07 | 34.88369 | -118.84397 | 27389 ft | 452 kts | 326° |
| 2026-04-24 03:08 | 34.91117 | -118.86297 | 27851 ft | 455 kts | 326° |
| 2026-04-24 03:08 | 34.96674 | -118.90119 | 28763 ft | 460 kts | 326° |
| 2026-04-24 03:08 | 34.99445 | -118.92026 | 29209 ft | 463 kts | 326° |
| 2026-04-24 03:09 | 35.02256 | -118.93963 | 29626 ft | 465 kts | 326° |
| 2026-04-24 03:09 | 35.05071 | -118.95903 | 30151 ft | 464 kts | 326° |
| 2026-04-24 03:09 | 35.07882 | -118.97843 | 30629 ft | 463 kts | 326° |
| 2026-04-24 03:09 | 35.10678 | -118.99775 | 31118 ft | 461 kts | 326° |
| 2026-04-24 03:10 | 35.13465 | -119.01703 | 31573 ft | 460 kts | 325° |
| 2026-04-24 03:10 | 35.16243 | -119.03627 | 32035 ft | 459 kts | 325° |
| 2026-04-24 03:10 | 35.19019 | -119.05551 | 32485 ft | 458 kts | 325° |
| 2026-04-24 03:10 | 35.21780 | -119.07466 | 32965 ft | 456 kts | 325° |
| 2026-04-24 03:11 | 35.24532 | -119.09377 | 33411 ft | 454 kts | 325° |
| 2026-04-24 03:11 | 35.27281 | -119.11287 | 33808 ft | 454 kts | 325° |
| 2026-04-24 03:11 | 35.30031 | -119.13202 | 33982 ft | 458 kts | 325° |
| 2026-04-24 03:12 | 35.35582 | -119.17068 | 33998 ft | 457 kts | 325° |
| 2026-04-24 03:12 | 35.41064 | -119.20887 | 34014 ft | 450 kts | 324° |
| 2026-04-24 03:13 | 35.46631 | -119.24321 | 34005 ft | 458 kts | 337° |
| 2026-04-24 03:13 | 35.52857 | -119.26171 | 34013 ft | 462 kts | 341° |
| 2026-04-24 03:14 | 35.59139 | -119.27870 | 34048 ft | 463 kts | 341° |
| 2026-04-24 03:14 | 35.65420 | -119.29663 | 34036 ft | 464 kts | 340° |
| 2026-04-24 03:15 | 35.71694 | -119.31527 | 34031 ft | 464 kts | 340° |
| 2026-04-24 03:15 | 35.77984 | -119.33420 | 34051 ft | 465 kts | 340° |
| 2026-04-24 03:16 | 35.84270 | -119.35314 | 34039 ft | 465 kts | 340° |
| 2026-04-24 03:16 | 35.90552 | -119.37207 | 34023 ft | 464 kts | 340° |
| 2026-04-24 03:17 | 35.96824 | -119.39099 | 34026 ft | 463 kts | 340° |
| 2026-04-24 03:17 | 36.03038 | -119.40976 | 34033 ft | 462 kts | 340° |
| 2026-04-24 03:18 | 36.09284 | -119.42866 | 34031 ft | 461 kts | 340° |
| 2026-04-24 03:18 | 36.15511 | -119.44754 | 34035 ft | 460 kts | 340° |
| 2026-04-24 03:19 | 36.21735 | -119.46644 | 34044 ft | 460 kts | 340° |
| 2026-04-24 03:19 | 36.27951 | -119.48535 | 34035 ft | 460 kts | 340° |
| 2026-04-24 03:20 | 36.33118 | -119.50109 | 34040 ft | 459 kts | 340° |
| 2026-04-24 03:20 | 36.40330 | -119.52310 | 34048 ft | 459 kts | 340° |
| 2026-04-24 03:21 | 36.46536 | -119.54206 | 34024 ft | 459 kts | 340° |
| 2026-04-24 03:21 | 36.51691 | -119.55784 | 34027 ft | 458 kts | 340° |
| 2026-04-24 03:22 | 36.57875 | -119.57680 | 34023 ft | 458 kts | 340° |
| 2026-04-24 03:22 | 36.64065 | -119.59581 | 34029 ft | 458 kts | 340° |
| 2026-04-24 03:23 | 36.70247 | -119.61482 | 34027 ft | 457 kts | 340° |
| 2026-04-24 03:23 | 36.76431 | -119.63388 | 34027 ft | 457 kts | 340° |
| 2026-04-24 03:24 | 36.82616 | -119.65297 | 34029 ft | 457 kts | 340° |
| 2026-04-24 03:24 | 36.88790 | -119.67205 | 34030 ft | 457 kts | 340° |
| 2026-04-24 03:25 | 36.94968 | -119.69119 | 34027 ft | 458 kts | 340° |
| 2026-04-24 03:25 | 37.01150 | -119.71036 | 34035 ft | 458 kts | 340° |
| 2026-04-24 03:26 | 37.07343 | -119.72959 | 34032 ft | 458 kts | 340° |
| 2026-04-24 03:26 | 37.13497 | -119.74875 | 34046 ft | 458 kts | 340° |
| 2026-04-24 03:27 | 37.19722 | -119.76815 | 34057 ft | 458 kts | 340° |
| 2026-04-24 03:27 | 37.25866 | -119.78734 | 34046 ft | 458 kts | 340° |
| 2026-04-24 03:28 | 37.32051 | -119.80668 | 34062 ft | 458 kts | 340° |
| 2026-04-24 03:28 | 37.38233 | -119.82605 | 34074 ft | 458 kts | 340° |
| 2026-04-24 03:29 | 37.44417 | -119.84545 | 34060 ft | 457 kts | 340° |
| 2026-04-24 03:29 | 37.50598 | -119.86489 | 34060 ft | 457 kts | 340° |
| 2026-04-24 03:30 | 37.56772 | -119.88432 | 34085 ft | 457 kts | 340° |
| 2026-04-24 03:30 | 37.62934 | -119.90377 | 34090 ft | 456 kts | 340° |
| 2026-04-24 03:31 | 37.69060 | -119.92317 | 34068 ft | 457 kts | 340° |
| 2026-04-24 03:31 | 37.75221 | -119.94270 | 34100 ft | 456 kts | 340° |
| 2026-04-24 03:32 | 37.81384 | -119.96212 | 34086 ft | 456 kts | 340° |
| 2026-04-24 03:32 | 37.87539 | -119.98168 | 34083 ft | 456 kts | 340° |
| 2026-04-24 03:33 | 37.93690 | -120.00128 | 34098 ft | 456 kts | 340° |
| 2026-04-24 03:33 | 37.99847 | -120.02091 | 34099 ft | 456 kts | 340° |
| 2026-04-24 03:34 | 38.05992 | -120.04054 | 34092 ft | 455 kts | 340° |
| 2026-04-24 03:34 | 38.12089 | -120.06004 | 34095 ft | 455 kts | 340° |
| 2026-04-24 03:35 | 38.18220 | -120.07969 | 34095 ft | 454 kts | 340° |
| 2026-04-24 03:35 | 38.24343 | -120.09942 | 34102 ft | 452 kts | 339° |
| 2026-04-24 03:36 | 38.30354 | -120.12216 | 34075 ft | 450 kts | 336° |
| 2026-04-24 03:36 | 38.36315 | -120.14640 | 34093 ft | 449 kts | 336° |
| 2026-04-24 03:37 | 38.42287 | -120.17048 | 34101 ft | 450 kts | 337° |
| 2026-04-24 03:37 | 38.48263 | -120.19422 | 34101 ft | 450 kts | 337° |
| 2026-04-24 03:38 | 38.54206 | -120.21772 | 34104 ft | 450 kts | 337° |
| 2026-04-24 03:38 | 38.60181 | -120.24136 | 34106 ft | 449 kts | 337° |
| 2026-04-24 03:39 | 38.66154 | -120.26504 | 34099 ft | 449 kts | 337° |
| 2026-04-24 03:39 | 38.72119 | -120.28875 | 34102 ft | 448 kts | 337° |
| 2026-04-24 03:40 | 38.78076 | -120.31246 | 34103 ft | 448 kts | 337° |
| 2026-04-24 03:40 | 38.84024 | -120.33616 | 34103 ft | 448 kts | 337° |
| 2026-04-24 03:41 | 38.89972 | -120.35994 | 34113 ft | 448 kts | 337° |
| 2026-04-24 03:41 | 38.95927 | -120.38377 | 34100 ft | 448 kts | 337° |
| 2026-04-24 03:42 | 39.01880 | -120.40763 | 34086 ft | 448 kts | 337° |
| 2026-04-24 03:42 | 39.07834 | -120.43154 | 34108 ft | 448 kts | 337° |
| 2026-04-24 03:43 | 39.13792 | -120.45551 | 34109 ft | 448 kts | 337° |
| 2026-04-24 03:43 | 39.19747 | -120.47950 | 34124 ft | 448 kts | 337° |
| 2026-04-24 03:44 | 39.25711 | -120.50359 | 34132 ft | 449 kts | 337° |
| 2026-04-24 03:44 | 39.31671 | -120.52770 | 34106 ft | 449 kts | 337° |
| 2026-04-24 03:45 | 39.37592 | -120.55167 | 34084 ft | 448 kts | 337° |
| 2026-04-24 03:45 | 39.43546 | -120.57585 | 34086 ft | 449 kts | 337° |
| 2026-04-24 03:46 | 39.49509 | -120.60010 | 34081 ft | 449 kts | 337° |
| 2026-04-24 03:46 | 39.55472 | -120.62438 | 34088 ft | 449 kts | 337° |
| 2026-04-24 03:47 | 39.61442 | -120.64877 | 34076 ft | 449 kts | 337° |
| 2026-04-24 03:47 | 39.67411 | -120.67318 | 34078 ft | 449 kts | 337° |
| 2026-04-24 03:48 | 39.73381 | -120.69759 | 34101 ft | 450 kts | 337° |
| 2026-04-24 03:48 | 39.79354 | -120.72217 | 34080 ft | 450 kts | 337° |
| 2026-04-24 03:49 | 39.85334 | -120.74670 | 34079 ft | 451 kts | 337° |
| 2026-04-24 03:49 | 39.91324 | -120.77134 | 34091 ft | 452 kts | 337° |
| 2026-04-24 03:50 | 39.97319 | -120.79609 | 34075 ft | 452 kts | 337° |
| 2026-04-24 03:50 | 40.03265 | -120.82068 | 34059 ft | 451 kts | 337° |
| 2026-04-24 03:51 | 40.09243 | -120.84542 | 34071 ft | 450 kts | 337° |
| 2026-04-24 03:51 | 40.15201 | -120.87013 | 34063 ft | 449 kts | 337° |
| 2026-04-24 03:52 | 40.21153 | -120.89487 | 34058 ft | 448 kts | 337° |
| 2026-04-24 03:52 | 40.27096 | -120.91961 | 34070 ft | 447 kts | 337° |
| 2026-04-24 03:53 | 40.33020 | -120.94433 | 34046 ft | 446 kts | 337° |
| 2026-04-24 03:53 | 40.38923 | -120.96900 | 34040 ft | 445 kts | 337° |
| 2026-04-24 03:54 | 40.44832 | -120.99375 | 34045 ft | 446 kts | 337° |
| 2026-04-24 03:54 | 40.50751 | -121.01859 | 34057 ft | 447 kts | 337° |
| 2026-04-24 03:55 | 40.56691 | -121.04356 | 34058 ft | 448 kts | 337° |
| 2026-04-24 03:55 | 40.62601 | -121.06843 | 34065 ft | 449 kts | 337° |
| 2026-04-24 03:56 | 40.68561 | -121.09357 | 34050 ft | 449 kts | 337° |
| 2026-04-24 03:56 | 40.74500 | -121.11866 | 34072 ft | 447 kts | 337° |
| 2026-04-24 03:57 | 40.80423 | -121.14373 | 34059 ft | 446 kts | 337° |
| 2026-04-24 03:57 | 40.86329 | -121.16879 | 34040 ft | 445 kts | 337° |
| 2026-04-24 03:58 | 40.92221 | -121.19384 | 34050 ft | 444 kts | 337° |
| 2026-04-24 03:58 | 40.98101 | -121.21887 | 34055 ft | 444 kts | 337° |
| 2026-04-24 03:59 | 41.03993 | -121.24401 | 34044 ft | 445 kts | 337° |
| 2026-04-24 03:59 | 41.09853 | -121.26905 | 34054 ft | 446 kts | 338° |
| 2026-04-24 04:00 | 41.15776 | -121.29443 | 34054 ft | 448 kts | 338° |
| 2026-04-24 04:00 | 41.21723 | -121.31995 | 34060 ft | 450 kts | 338° |
| 2026-04-24 04:01 | 41.27688 | -121.34560 | 34078 ft | 451 kts | 338° |
| 2026-04-24 04:01 | 41.33673 | -121.37137 | 34085 ft | 453 kts | 338° |
| 2026-04-24 04:02 | 41.39669 | -121.39723 | 34083 ft | 453 kts | 338° |
| 2026-04-24 04:02 | 41.45674 | -121.42320 | 34090 ft | 454 kts | 339° |
| 2026-04-24 04:03 | 41.51690 | -121.44927 | 34094 ft | 455 kts | 339° |
| 2026-04-24 04:03 | 41.57732 | -121.47548 | 34090 ft | 457 kts | 339° |
| 2026-04-24 04:04 | 41.63745 | -121.50164 | 34096 ft | 458 kts | 339° |
| 2026-04-24 04:04 | 41.79245 | -121.56974 | 34082 ft | 463 kts | 341° |
| 2026-04-24 04:05 | 41.91549 | -121.62324 | 34106 ft | 466 kts | 341° |
| 2026-04-24 04:05 | 42.03909 | -121.67764 | 34090 ft | 468 kts | 341° |
| 2026-04-24 04:06 | 42.16306 | -121.73251 | 34098 ft | 469 kts | 341° |
| 2026-04-24 04:06 | 42.28563 | -121.79343 | 34096 ft | 469 kts | 339° |
| 2026-04-24 04:07 | 42.38724 | -121.84462 | 34084 ft | 468 kts | 340° |
| 2026-04-24 04:07 | 42.50930 | -121.90576 | 34089 ft | 467 kts | 340° |
| 2026-04-24 04:08 | 42.65072 | -121.97690 | 34085 ft | 466 kts | 340° |
| 2026-04-24 04:08 | 42.75228 | -122.02823 | 34086 ft | 464 kts | 340° |
| 2026-04-24 04:09 | 43.02357 | -122.16615 | 34127 ft | 462 kts | 340° |
| 2026-04-24 04:09 | 43.50359 | -122.41349 | 34251 ft | 458 kts | 340° |
| 2026-04-24 04:09 | 43.81716 | -122.57738 | 34151 ft | 453 kts | 340° |
| 2026-04-24 04:10 | 43.85455 | -122.59706 | 33794 ft | 433 kts | 340° |
| 2026-04-24 04:10 | 43.87719 | -122.60900 | 33054 ft | 422 kts | 340° |
| 2026-04-24 04:10 | 43.90701 | -122.62473 | 31791 ft | 414 kts | 340° |
| 2026-04-24 04:11 | 43.96030 | -122.65283 | 29420 ft | 404 kts | 339° |
| 2026-04-24 04:11 | 43.98615 | -122.66651 | 28910 ft | 392 kts | 339° |
| 2026-04-24 04:11 | 44.01153 | -122.67994 | 28390 ft | 389 kts | 339° |
| 2026-04-24 04:11 | 44.03672 | -122.69328 | 27961 ft | 385 kts | 339° |
| 2026-04-24 04:12 | 44.06170 | -122.70652 | 27505 ft | 382 kts | 339° |
| 2026-04-24 04:12 | 44.08646 | -122.71965 | 27061 ft | 380 kts | 339° |
| 2026-04-24 04:12 | 44.11103 | -122.73269 | 26618 ft | 377 kts | 339° |
| 2026-04-24 04:12 | 44.13548 | -122.74559 | 26192 ft | 372 kts | 341° |
| 2026-04-24 04:13 | 44.16061 | -122.75290 | 25748 ft | 370 kts | 358° |
| 2026-04-24 04:13 | 44.18610 | -122.75088 | 25365 ft | 365 kts | 3° |
| 2026-04-24 04:13 | 44.21111 | -122.74798 | 24948 ft | 365 kts | 3° |
| 2026-04-24 04:13 | 44.23653 | -122.74513 | 24544 ft | 369 kts | 2° |
| 2026-04-24 04:14 | 44.26252 | -122.74235 | 24129 ft | 379 kts | 2° |
| 2026-04-24 04:14 | 44.28909 | -122.73960 | 23668 ft | 385 kts | 2° |
| 2026-04-24 04:14 | 44.31580 | -122.73689 | 23167 ft | 384 kts | 2° |
| 2026-04-24 04:14 | 44.34232 | -122.73423 | 22717 ft | 381 kts | 2° |
| 2026-04-24 04:15 | 44.36868 | -122.73162 | 22271 ft | 378 kts | 1° |
| 2026-04-24 04:15 | 44.39479 | -122.72903 | 21846 ft | 375 kts | 1° |
| 2026-04-24 04:15 | 44.42073 | -122.72645 | 21404 ft | 372 kts | 1° |
| 2026-04-24 04:15 | 44.44643 | -122.72390 | 20984 ft | 369 kts | 1° |
| 2026-04-24 04:16 | 44.47197 | -122.72137 | 20553 ft | 366 kts | 1° |
| 2026-04-24 04:16 | 44.49730 | -122.71885 | 20149 ft | 364 kts | 1° |
| 2026-04-24 04:16 | 44.52246 | -122.71636 | 19733 ft | 362 kts | 1° |
| 2026-04-24 04:16 | 44.54744 | -122.71389 | 19382 ft | 358 kts | 1° |
| 2026-04-24 04:17 | 44.57196 | -122.71144 | 19235 ft | 348 kts | 1° |
| 2026-04-24 04:17 | 44.59583 | -122.70905 | 18938 ft | 343 kts | 1° |
| 2026-04-24 04:17 | 44.61958 | -122.70668 | 18502 ft | 342 kts | 1° |
| 2026-04-24 04:17 | 44.64344 | -122.70430 | 17952 ft | 344 kts | 1° |
| 2026-04-24 04:18 | 44.66721 | -122.70192 | 17553 ft | 341 kts | 1° |
| 2026-04-24 04:18 | 44.69081 | -122.69955 | 17131 ft | 339 kts | 1° |
| 2026-04-24 04:18 | 44.71424 | -122.69719 | 16732 ft | 336 kts | 1° |
| 2026-04-24 04:18 | 44.73744 | -122.69484 | 16340 ft | 333 kts | 1° |
| 2026-04-24 04:19 | 44.76044 | -122.69252 | 15953 ft | 329 kts | 1° |
| 2026-04-24 04:19 | 44.78319 | -122.69023 | 15573 ft | 326 kts | 1° |
| 2026-04-24 04:19 | 44.80579 | -122.68795 | 15210 ft | 323 kts | 1° |
| 2026-04-24 04:19 | 44.82784 | -122.68574 | 14850 ft | 320 kts | 1° |
| 2026-04-24 04:20 | 44.84995 | -122.68352 | 14489 ft | 318 kts | 1° |
| 2026-04-24 04:20 | 44.87191 | -122.68131 | 14125 ft | 315 kts | 2° |
| 2026-04-24 04:20 | 44.89375 | -122.67911 | 13725 ft | 313 kts | 2° |
| 2026-04-24 04:20 | 44.91533 | -122.67693 | 13373 ft | 309 kts | 2° |
| 2026-04-24 04:21 | 44.93635 | -122.67480 | 13246 ft | 297 kts | 2° |
| 2026-04-24 04:21 | 44.95662 | -122.67275 | 13114 ft | 287 kts | 2° |
| 2026-04-24 04:21 | 44.97627 | -122.67076 | 12849 ft | 281 kts | 2° |
| 2026-04-24 04:21 | 44.99565 | -122.66881 | 12558 ft | 276 kts | 2° |
| 2026-04-24 04:22 | 45.01477 | -122.66687 | 12230 ft | 273 kts | 2° |
| 2026-04-24 04:22 | 45.03356 | -122.66497 | 11925 ft | 269 kts | 2° |
| 2026-04-24 04:22 | 45.05219 | -122.66308 | 11625 ft | 269 kts | 2° |
| 2026-04-24 04:22 | 45.07071 | -122.66120 | 11333 ft | 273 kts | 2° |
| 2026-04-24 04:23 | 45.08985 | -122.65927 | 11019 ft | 278 kts | 2° |
| 2026-04-24 04:23 | 45.10917 | -122.65730 | 10697 ft | 278 kts | 2° |
| 2026-04-24 04:23 | 45.12846 | -122.65534 | 10364 ft | 275 kts | 3° |
| 2026-04-24 04:23 | 45.14733 | -122.65340 | 10182 ft | 266 kts | 3° |
| 2026-04-24 04:24 | 45.16549 | -122.65154 | 10049 ft | 256 kts | 3° |
| 2026-04-24 04:24 | 45.18299 | -122.64976 | 9754 ft | 250 kts | 3° |
| 2026-04-24 04:24 | 45.20029 | -122.64800 | 9485 ft | 251 kts | 3° |
| 2026-04-24 04:24 | 45.21793 | -122.64620 | 9205 ft | 258 kts | 3° |
| 2026-04-24 04:25 | 45.23597 | -122.64436 | 8891 ft | 261 kts | 3° |
| 2026-04-24 04:25 | 45.25347 | -122.63929 | 8545 ft | 255 kts | 25° |
| 2026-04-24 04:25 | 45.26819 | -122.62617 | 8274 ft | 247 kts | 31° |
| 2026-04-24 04:25 | 45.28265 | -122.61298 | 8000 ft | 254 kts | 31° |
| 2026-04-24 04:26 | 45.29782 | -122.59941 | 7733 ft | 259 kts | 31° |
| 2026-04-24 04:26 | 45.31308 | -122.58573 | 7414 ft | 259 kts | 30° |
| 2026-04-24 04:26 | 45.32817 | -122.57217 | 7101 ft | 254 kts | 31° |
| 2026-04-24 04:26 | 45.34299 | -122.55886 | 6798 ft | 250 kts | 31° |
| 2026-04-24 04:27 | 45.35757 | -122.54574 | 6500 ft | 246 kts | 31° |
| 2026-04-24 04:27 | 45.37186 | -122.53288 | 6195 ft | 240 kts | 31° |
| 2026-04-24 04:27 | 45.38562 | -122.52046 | 6076 ft | 228 kts | 31° |
| 2026-04-24 04:27 | 45.39879 | -122.50858 | 5938 ft | 223 kts | 31° |
| 2026-04-24 04:28 | 45.41216 | -122.49656 | 5825 ft | 231 kts | 31° |
| 2026-04-24 04:28 | 45.42567 | -122.48379 | 5675 ft | 234 kts | 39° |
| 2026-04-24 04:28 | 45.43475 | -122.46444 | 5535 ft | 243 kts | 72° |
| 2026-04-24 04:28 | 45.43540 | -122.44027 | 5393 ft | 251 kts | 100° |
| 2026-04-24 04:29 | 45.42882 | -122.41622 | 4820 ft | 270 kts | 116° |
| 2026-04-24 04:29 | 45.41963 | -122.39308 | 4546 ft | 264 kts | 118° |
| 2026-04-24 04:29 | 45.41118 | -122.37062 | 4345 ft | 248 kts | 105° |
| 2026-04-24 04:29 | 45.41043 | -122.34664 | 4376 ft | 246 kts | 72° |
| 2026-04-24 04:30 | 45.41835 | -122.32544 | 4237 ft | 244 kts | 44° |
| 2026-04-24 04:30 | 45.43197 | -122.31231 | 4048 ft | 238 kts | 18° |
| 2026-04-24 04:30 | 45.44807 | -122.30916 | 3858 ft | 233 kts | 353° |
| 2026-04-24 04:30 | 45.46338 | -122.31573 | 3678 ft | 229 kts | 332° |
| 2026-04-24 04:31 | 45.47542 | -122.32957 | 3486 ft | 219 kts | 306° |
| 2026-04-24 04:31 | 45.48370 | -122.34737 | 3328 ft | 214 kts | 304° |
| 2026-04-24 04:31 | 45.49204 | -122.36475 | 3162 ft | 210 kts | 305° |
| 2026-04-24 04:31 | 45.50030 | -122.38188 | 3007 ft | 210 kts | 305° |
| 2026-04-24 04:32 | 45.50846 | -122.39922 | 2815 ft | 208 kts | 301° |
| 2026-04-24 04:32 | 45.51546 | -122.41672 | 2592 ft | 199 kts | 299° |
| 2026-04-24 04:32 | 45.52203 | -122.43367 | 2320 ft | 192 kts | 299° |
| 2026-04-24 04:32 | 45.52845 | -122.45017 | 2115 ft | 189 kts | 299° |
| 2026-04-24 04:33 | 45.53479 | -122.46651 | 2123 ft | 188 kts | 299° |
| 2026-04-24 04:33 | 45.54109 | -122.48294 | 2082 ft | 193 kts | 299° |
| 2026-04-24 04:33 | 45.54759 | -122.49968 | 1973 ft | 194 kts | 299° |
| 2026-04-24 04:33 | 45.55414 | -122.51643 | 1563 ft | 192 kts | 299° |
| 2026-04-24 04:34 | 45.56046 | -122.53281 | 1101 ft | 183 kts | 298° |
| 2026-04-24 04:34 | 45.56631 | -122.54819 | 723 ft | 166 kts | 300° |
| 2026-04-24 04:34 | 45.57172 | -122.56170 | 461 ft | 152 kts | 299° |
| 2026-04-24 04:34 | 45.57685 | -122.57456 | 238 ft | 146 kts | 299° |
| 2026-04-24 04:35 | 45.58171 | -122.58693 | 46 ft | 137 kts | 299° |
| 2026-04-24 04:35 | 45.58573 | -122.59726 | 35 ft | 91 kts | 299° |
| 2026-04-24 04:35 | 45.58773 | -122.60239 | 31 ft | 41 kts | 299° |
| 2026-04-24 04:35 | 45.58867 | -122.60501 | 31 ft | 21 kts | 282° |
| 2026-04-24 04:36 | 45.58828 | -122.60628 | 32 ft | 13 kts | 226° |
| 2026-04-24 04:36 | 45.58763 | -122.60722 | 32 ft | 14 kts | 225° |
| 2026-04-24 04:36 | 45.58691 | -122.60825 | 32 ft | 15 kts | 225° |
| 2026-04-24 04:36 | 45.58618 | -122.60928 | 30 ft | 15 kts | 225° |
| 2026-04-24 04:37 | 45.58547 | -122.61029 | 32 ft | 15 kts | 225° |
| 2026-04-24 04:37 | 45.58474 | -122.61132 | 32 ft | 15 kts | 225° |
| 2026-04-24 04:37 | 45.58402 | -122.61235 | 32 ft | 15 kts | 225° |
| 2026-04-24 04:37 | 45.58329 | -122.61337 | 32 ft | 15 kts | 216° |
| 2026-04-24 04:38 | 45.58241 | -122.61293 | 31 ft | 15 kts | 136° |
| 2026-04-24 04:38 | 45.58168 | -122.61190 | 31 ft | 15 kts | 135° |
| 2026-04-24 04:38 | 45.58096 | -122.61087 | 32 ft | 15 kts | 135° |
| 2026-04-24 04:38 | 45.58024 | -122.60984 | 32 ft | 13 kts | 135° |
| 2026-04-24 04:39 | 45.57985 | -122.60930 | 32 ft | 5 kts | 141° |
| 2026-04-24 04:39 | 45.57949 | -122.60918 | 32 ft | 5 kts | 175° |
| 2026-04-24 04:39 | 45.57932 | -122.60917 | 32 ft | 1 kts | 179° |
| 2026-04-24 04:39 | 45.57924 | -122.60922 | 32 ft | 1 kts | 213° |
| 2026-04-24 04:40 | 45.57915 | -122.60934 | 31 ft | 2 kts | 219° |
| 2026-04-24 04:40 | 45.57903 | -122.60948 | 32 ft | 2 kts | 223° |
| 2026-04-24 04:40 | 45.57891 | -122.60965 | 32 ft | 3 kts | 224° |
| 2026-04-24 04:40 | 45.57884 | -122.60975 | 31 ft | 0 kts | 224° |
| 2026-04-24 04:41 | 45.57883 | -122.60976 | 31 ft | 0 kts | 224° |